createdAt,value
2019-06-07T05:11:52.224Z,19.60
2019-06-07T05:12:52.935Z,19.50
2019-06-07T05:13:53.487Z,22.70
2019-06-07T05:14:52.802Z,21.70
2019-06-07T05:15:53.352Z,21.90
2019-06-07T05:16:53.764Z,19.80
2019-06-07T05:17:54.178Z,21.40
2019-06-07T05:18:54.488Z,22.10
2019-06-07T05:19:55.085Z,25.60
2019-06-07T05:20:55.423Z,23.00
2019-06-07T05:22:04.216Z,24.60
2019-06-07T05:22:55.915Z,21.10
2019-06-07T05:24:06.449Z,26.00
2019-06-07T05:24:56.808Z,24.80
2019-06-07T05:25:57.107Z,22.10
2019-06-07T05:26:57.332Z,21.70
2019-06-07T05:27:57.200Z,22.40
2019-06-07T05:28:57.658Z,21.20
2019-06-07T05:30:09.406Z,22.00
2019-06-07T05:31:04.676Z,22.80
2019-06-07T05:31:58.758Z,21.80
2019-06-07T05:32:59.083Z,21.20
2019-06-07T05:34:00.039Z,23.90
2019-06-07T05:35:00.174Z,19.50
2019-06-07T05:36:00.062Z,21.00
2019-06-07T05:37:11.390Z,21.30
2019-06-07T05:38:00.891Z,23.20
2019-06-07T05:39:01.340Z,22.90
2019-06-07T05:40:01.102Z,25.50
2019-06-07T05:41:01.417Z,21.80
2019-06-07T05:42:02.241Z,22.90
2019-06-07T05:43:02.864Z,22.10
2019-06-07T05:44:12.839Z,22.10
2019-06-07T05:45:03.492Z,21.50
2019-06-07T05:46:03.777Z,20.00
2019-06-07T05:47:03.606Z,20.30
2019-06-07T05:48:04.334Z,20.90
2019-06-07T05:49:04.233Z,20.30
2019-06-07T05:50:04.707Z,19.10
2019-06-07T05:51:04.402Z,18.50
2019-06-07T05:52:04.179Z,19.00
2019-06-07T05:53:04.901Z,17.80
2019-06-07T05:54:05.142Z,19.00
2019-06-07T05:55:05.036Z,18.50
2019-06-07T05:56:05.979Z,17.90
2019-06-07T05:57:05.773Z,18.30
2019-06-07T05:58:06.097Z,19.50
2019-06-07T05:59:06.412Z,19.40
2019-06-07T06:00:07.293Z,18.50
2019-06-07T06:01:41.398Z,19.00
2019-06-07T06:02:21.829Z,19.80
2019-06-07T06:03:08.224Z,19.60
2019-06-07T06:04:08.204Z,19.60
2019-06-07T06:05:08.845Z,18.90
2019-06-07T06:06:08.849Z,23.60
2019-06-07T06:07:09.222Z,21.10
2019-06-07T06:08:09.690Z,22.60
2019-06-07T06:09:13.737Z,21.60
2019-06-07T06:10:10.311Z,23.20
2019-06-07T06:11:10.310Z,21.70
2019-06-07T06:12:10.079Z,22.40
2019-06-07T06:13:10.876Z,21.90
2019-06-07T06:14:10.753Z,21.70
2019-06-07T06:15:11.463Z,21.10
2019-06-07T06:16:11.582Z,20.50
2019-06-07T06:17:11.429Z,20.90
2019-06-07T06:18:11.992Z,20.00
2019-06-07T06:19:12.585Z,21.50
2019-06-07T06:20:12.117Z,21.00
2019-06-07T06:21:19.361Z,20.80
2019-06-07T06:22:13.055Z,19.80
2019-06-07T06:23:13.082Z,18.80
2019-06-07T06:24:13.063Z,21.10
2019-06-07T06:25:31.688Z,21.40
2019-06-07T06:26:13.396Z,21.20
2019-06-07T06:27:41.792Z,19.90
2019-06-07T06:28:16.204Z,20.60
2019-06-07T06:29:14.234Z,19.70
2019-06-07T06:30:14.437Z,20.40
2019-06-07T06:31:14.641Z,21.40
2019-06-07T06:32:41.249Z,21.80
2019-06-07T06:33:30.751Z,20.50
2019-06-07T06:34:14.818Z,22.40
2019-06-07T06:35:16.017Z,21.60
2019-06-07T06:36:15.431Z,21.70
2019-06-07T06:37:16.202Z,21.90
2019-06-07T06:38:16.472Z,20.40
2019-06-07T06:39:16.755Z,19.70
2019-06-07T06:40:17.675Z,20.00
2019-06-07T06:42:17.010Z,16.90
2019-06-07T06:43:17.341Z,17.40
2019-06-07T06:44:17.834Z,17.30
2019-06-07T06:45:18.166Z,17.40
2019-06-07T06:46:37.474Z,17.10
2019-06-07T06:47:18.920Z,16.70
2019-06-07T06:48:19.775Z,17.70
2019-06-07T06:49:20.299Z,16.80
2019-06-07T06:50:20.196Z,17.30
2019-06-07T06:51:20.510Z,17.50
2019-06-07T06:52:20.285Z,17.50
2019-06-07T06:53:21.136Z,16.70
2019-06-07T06:54:39.626Z,15.40
2019-06-07T06:55:21.724Z,15.70
2019-06-07T06:56:21.157Z,16.20
2019-06-07T06:57:21.130Z,16.50
2019-06-07T06:58:21.535Z,16.30
2019-06-07T06:59:38.126Z,17.00
2019-06-07T07:00:42.780Z,15.50
2019-06-07T07:01:22.363Z,16.90
2019-06-07T07:02:23.143Z,14.80
2019-06-07T07:04:23.335Z,14.20
2019-06-07T07:05:24.064Z,14.90
2019-06-07T07:06:26.732Z,15.00
2019-06-07T07:07:24.302Z,13.40
2019-06-07T07:08:24.151Z,14.70
2019-06-07T07:09:24.529Z,15.30
2019-06-07T07:10:25.029Z,14.20
2019-06-07T07:11:25.143Z,14.30
2019-06-07T07:12:24.948Z,14.10
2019-06-07T07:13:25.574Z,13.70
2019-06-07T07:14:25.508Z,13.90
2019-06-07T07:15:26.096Z,14.50
2019-06-07T07:16:26.901Z,13.00
2019-06-07T07:17:47.048Z,13.50
2019-06-07T07:18:26.686Z,13.70
2019-06-07T07:19:26.999Z,12.50
2019-06-07T07:20:27.337Z,12.60
2019-06-07T07:21:27.875Z,11.90
2019-06-07T07:22:27.899Z,12.00
2019-06-07T07:23:27.799Z,12.20
2019-06-07T07:24:28.708Z,12.20
2019-06-07T07:25:28.974Z,12.00
2019-06-07T07:26:28.924Z,12.60
2019-06-07T07:27:29.310Z,12.00
2019-06-07T07:28:30.071Z,11.50
2019-06-07T07:29:29.926Z,12.70
2019-06-07T07:30:36.495Z,12.30
2019-06-07T07:31:30.710Z,11.50
2019-06-07T07:32:30.958Z,12.30
2019-06-07T07:34:20.979Z,11.60
2019-06-07T07:34:35.527Z,11.70
2019-06-07T07:35:30.891Z,11.90
2019-06-07T07:36:39.171Z,12.00
2019-06-07T07:37:31.665Z,12.20
2019-06-07T07:38:31.661Z,10.90
2019-06-07T07:39:31.883Z,10.70
2019-06-07T07:40:57.218Z,10.30
2019-06-07T07:41:31.949Z,9.40
2019-06-07T07:42:33.030Z,10.40
2019-06-07T07:43:32.553Z,9.90
2019-06-07T07:44:33.147Z,9.80
2019-06-07T07:45:33.052Z,10.00
2019-06-07T07:46:35.505Z,9.00
2019-06-07T07:47:33.678Z,9.30
2019-06-07T07:48:33.463Z,9.90
2019-06-07T07:49:34.677Z,10.30
2019-06-07T07:50:34.430Z,10.00
2019-06-07T07:51:34.264Z,9.00
2019-06-07T07:52:35.077Z,9.60
2019-06-07T07:53:48.359Z,9.90
2019-06-07T07:54:35.213Z,9.10
2019-06-07T07:55:35.885Z,8.60
2019-06-07T07:56:36.503Z,9.10
2019-06-07T07:57:36.513Z,8.90
2019-06-07T07:58:36.377Z,9.00
2019-06-07T07:59:43.936Z,9.10
2019-06-07T08:00:52.282Z,8.50
2019-06-07T08:01:37.764Z,8.30
2019-06-07T08:02:37.615Z,8.70
2019-06-07T08:03:37.935Z,9.10
2019-06-07T08:05:13.577Z,8.90
2019-06-07T08:05:42.950Z,8.10
2019-06-07T08:06:38.912Z,8.30
2019-06-07T08:07:39.545Z,8.50
2019-06-07T08:08:40.167Z,7.90
2019-06-07T08:09:40.235Z,9.00
2019-06-07T08:10:39.713Z,8.50
2019-06-07T08:11:40.034Z,7.90
2019-06-07T08:13:00.463Z,8.10
2019-06-07T08:13:41.630Z,7.40
2019-06-07T08:14:41.330Z,7.50
2019-06-07T08:16:41.559Z,6.80
2019-06-07T08:17:41.410Z,7.50
2019-06-07T08:18:42.483Z,7.10
2019-06-07T08:19:41.798Z,7.40
2019-06-07T08:21:01.456Z,8.30
2019-06-07T08:21:42.814Z,6.60
2019-06-07T08:22:43.022Z,7.50
2019-06-07T08:23:42.823Z,6.20
2019-06-07T08:24:43.957Z,8.00
2019-06-07T08:25:43.565Z,6.30
2019-06-07T08:26:43.832Z,7.20
2019-06-07T08:27:43.739Z,6.50
2019-06-07T08:28:44.702Z,7.90
2019-06-07T08:30:00.637Z,6.10
2019-06-07T08:30:54.347Z,6.60
2019-06-07T08:31:45.643Z,7.20
2019-06-07T08:32:45.273Z,5.40
2019-06-07T08:33:45.094Z,5.70
2019-06-07T08:34:45.114Z,5.60
2019-06-07T08:36:46.005Z,6.20
2019-06-07T08:38:51.111Z,4.60
2019-06-07T08:39:49.812Z,5.10
2019-06-07T08:40:47.203Z,5.20
2019-06-07T08:42:00.415Z,4.50
2019-06-07T08:43:10.648Z,5.20
2019-06-07T08:43:49.213Z,4.60
2019-06-07T08:44:49.196Z,5.50
2019-06-07T08:45:53.175Z,5.00
2019-06-07T08:46:56.648Z,5.30
2019-06-07T08:47:56.540Z,4.90
2019-06-07T08:48:51.200Z,4.80
2019-06-07T08:49:54.928Z,5.20
2019-06-07T08:50:52.959Z,4.40
2019-06-07T08:51:52.583Z,5.10
2019-06-07T08:52:56.498Z,4.70
2019-06-07T08:54:09.593Z,4.60
2019-06-07T08:54:54.207Z,4.80
2019-06-07T08:55:58.286Z,4.70
2019-06-07T08:56:57.409Z,4.90
2019-06-07T08:57:57.256Z,4.70
2019-06-07T08:58:55.015Z,4.10
2019-06-07T08:59:55.691Z,4.50
2019-06-07T09:00:58.089Z,4.10
2019-06-07T09:01:58.461Z,4.50
2019-06-07T09:02:55.659Z,8.00
2019-06-07T09:04:00.154Z,4.60
2019-06-07T09:04:57.003Z,3.90
2019-06-07T09:05:57.217Z,4.50
2019-06-07T09:07:06.692Z,4.30
2019-06-07T09:08:21.065Z,3.80
2019-06-07T09:08:58.273Z,4.70
2019-06-07T09:10:03.444Z,4.80
2019-06-07T09:10:58.929Z,4.80
2019-06-07T09:11:59.469Z,4.00
2019-06-07T09:13:00.352Z,4.00
2019-06-07T09:14:00.054Z,4.70
2019-06-07T09:15:12.123Z,4.50
2019-06-07T09:16:03.453Z,4.70
2019-06-07T09:17:01.286Z,5.20
2019-06-07T09:19:01.260Z,4.70
2019-06-07T09:20:06.332Z,3.90
2019-06-07T09:21:01.155Z,5.20
2019-06-07T09:22:03.340Z,4.60
2019-06-07T09:23:07.217Z,4.30
2019-06-07T09:24:05.502Z,4.50
2019-06-07T09:25:09.439Z,4.00
2019-06-07T09:26:07.904Z,4.50
2019-06-07T09:27:05.142Z,4.30
2019-06-07T09:28:10.169Z,4.50
2019-06-07T09:29:07.052Z,5.00
2019-06-07T09:31:06.896Z,4.30
2019-06-07T09:32:05.933Z,4.10
2019-06-07T09:33:05.743Z,3.70
2019-06-07T09:34:08.654Z,4.30
2019-06-07T09:35:08.106Z,4.20
2019-06-07T09:36:09.228Z,4.40
2019-06-07T09:37:55.682Z,4.20
2019-06-07T09:38:11.073Z,4.30
2019-06-07T09:39:08.341Z,4.30
2019-06-07T09:40:19.643Z,4.70
2019-06-07T09:41:06.148Z,4.50
2019-06-07T09:42:09.971Z,4.90
2019-06-07T09:43:55.322Z,4.90
2019-06-07T09:44:23.277Z,3.60
2019-06-07T09:45:08.769Z,3.80
2019-06-07T09:46:14.537Z,3.90
2019-06-07T09:47:24.425Z,3.20
2019-06-07T09:48:13.634Z,3.90
2019-06-07T09:49:18.763Z,4.40
2019-06-07T09:50:11.422Z,4.00
2019-06-07T09:51:18.641Z,4.40
2019-06-07T09:52:10.491Z,4.20
2019-06-07T09:53:18.941Z,4.00
2019-06-07T09:54:09.303Z,4.50
2019-06-07T09:55:23.125Z,4.20
2019-06-07T09:56:11.332Z,4.20
2019-06-07T09:57:16.372Z,4.40
2019-06-07T09:58:49.630Z,3.80
2019-06-07T09:59:12.653Z,4.10
2019-06-07T10:00:38.176Z,3.40
2019-06-07T10:01:13.518Z,4.60
2019-06-07T10:02:13.590Z,4.70
2019-06-07T10:03:20.077Z,3.90
2019-06-07T10:04:28.161Z,3.80
2019-06-07T10:05:13.968Z,4.00
2019-06-07T10:06:13.644Z,3.50
2019-06-07T10:07:28.618Z,4.40
2019-06-07T10:08:54.446Z,4.00
2019-06-07T10:10:09.309Z,3.70
2019-06-07T10:11:12.740Z,3.70
2019-06-07T10:12:13.025Z,4.10
2019-06-07T10:13:13.504Z,3.90
2019-06-07T10:14:13.898Z,3.90
2019-06-07T10:15:15.241Z,3.70
2019-06-07T10:16:14.744Z,4.30
2019-06-07T10:17:15.203Z,4.60
2019-06-07T10:18:15.730Z,4.50
2019-06-07T10:19:16.662Z,6.40
2019-06-07T10:20:16.922Z,4.50
2019-06-07T10:21:17.443Z,3.80
2019-06-07T10:22:16.734Z,4.00
2019-06-07T10:23:16.998Z,4.00
2019-06-07T10:24:17.356Z,4.00
2019-06-07T10:25:18.340Z,3.60
2019-06-07T10:26:18.186Z,4.30
2019-06-07T10:27:19.161Z,3.80
2019-06-07T10:28:19.068Z,4.80
2019-06-07T10:29:19.687Z,3.90
2019-06-07T10:30:19.539Z,4.00
2019-06-07T10:31:19.867Z,3.70
2019-06-07T10:32:20.145Z,5.70
2019-06-07T10:33:20.551Z,4.10
2019-06-07T10:34:20.893Z,5.30
2019-06-07T10:35:21.218Z,4.00
2019-06-07T10:36:22.053Z,4.00
2019-06-07T10:37:21.948Z,3.90
2019-06-07T10:38:22.824Z,4.00
2019-06-07T10:39:23.030Z,4.10
2019-06-07T10:40:23.340Z,3.80
2019-06-07T10:41:23.548Z,3.80
2019-06-07T10:42:23.446Z,3.80
2019-06-07T10:43:23.839Z,3.90
2019-06-07T10:44:24.151Z,5.50
2019-06-07T10:45:24.574Z,3.40
2019-06-07T10:46:25.128Z,3.60
2019-06-07T10:47:24.958Z,3.90
2019-06-07T10:48:25.306Z,4.60
2019-06-07T10:49:26.178Z,4.00
2019-06-07T10:50:25.956Z,4.70
2019-06-07T10:51:26.219Z,4.30
2019-06-07T10:52:26.800Z,4.20
2019-06-07T10:53:27.429Z,3.60
2019-06-07T10:54:30.552Z,3.90
2019-06-07T10:55:27.192Z,3.50
2019-06-07T10:56:28.419Z,3.90
2019-06-07T10:57:27.815Z,3.60
2019-06-07T10:58:28.081Z,4.20
2019-06-07T10:59:28.433Z,4.20
2019-06-07T11:00:28.745Z,4.20
2019-06-07T11:01:29.929Z,3.60
2019-06-07T11:02:29.326Z,3.60
2019-06-07T11:03:30.267Z,3.90
2019-06-07T11:04:30.464Z,4.00
2019-06-07T11:05:30.268Z,4.60
2019-06-07T11:06:30.624Z,3.60
2019-06-07T11:07:31.103Z,3.90
2019-06-07T11:08:30.957Z,3.70
2019-06-07T11:09:32.038Z,4.00
2019-06-07T11:10:31.379Z,3.50
2019-06-07T11:11:32.053Z,3.60
2019-06-07T11:12:32.176Z,3.70
2019-06-07T11:13:32.644Z,3.90
2019-06-07T11:14:33.139Z,3.40
2019-06-07T11:15:34.127Z,3.60
2019-06-07T11:16:33.949Z,3.80
2019-06-07T11:17:35.026Z,4.50
2019-06-07T11:18:34.386Z,3.50
2019-06-07T11:19:34.992Z,3.70
2019-06-07T11:20:34.793Z,3.60
2019-06-07T11:21:35.123Z,3.40
2019-06-07T11:22:36.108Z,4.20
2019-06-07T11:23:35.901Z,3.90
2019-06-07T11:24:37.153Z,3.90
2019-06-07T11:25:37.334Z,3.50
2019-06-07T11:26:37.599Z,4.20
2019-06-07T11:27:36.905Z,3.90
2019-06-07T11:28:37.567Z,4.10
2019-06-07T11:29:37.680Z,4.00
2019-06-07T11:30:38.291Z,4.90
2019-06-07T11:31:38.291Z,3.30
2019-06-07T11:32:38.505Z,3.30
2019-06-07T11:33:38.631Z,3.30
2019-06-07T11:34:38.625Z,3.80
2019-06-07T11:35:38.522Z,4.10
2019-06-07T11:36:38.525Z,3.80
2019-06-07T11:37:39.767Z,3.50
2019-06-07T11:38:39.101Z,3.60
2019-06-07T11:39:39.470Z,3.50
2019-06-07T11:40:40.607Z,4.00
2019-06-07T11:41:40.056Z,3.70
2019-06-07T11:42:40.367Z,3.60
2019-06-07T11:43:41.250Z,3.50
2019-06-07T11:44:55.736Z,3.40
2019-06-07T11:45:41.178Z,3.50
2019-06-07T11:46:41.877Z,3.20
2019-06-07T11:47:42.056Z,3.90
2019-06-07T11:48:42.230Z,3.80
2019-06-07T11:49:42.110Z,4.30
2019-06-07T11:50:43.143Z,3.80
2019-06-07T11:51:42.955Z,3.20
2019-06-07T11:52:46.303Z,3.70
2019-06-07T11:53:44.714Z,3.50
2019-06-07T11:54:47.821Z,3.40
2019-06-07T11:55:44.689Z,4.40
2019-06-07T11:56:44.911Z,3.50
2019-06-07T11:57:45.328Z,3.60
2019-06-07T11:58:45.536Z,3.60
2019-06-07T11:59:45.652Z,3.90
2019-06-07T12:00:45.665Z,3.50
2019-06-07T12:01:46.489Z,4.40
2019-06-07T12:02:46.587Z,3.50
2019-06-07T12:03:47.108Z,3.60
2019-06-07T12:04:46.915Z,3.40
2019-06-07T12:05:47.428Z,3.60
2019-06-07T12:06:47.545Z,4.40
2019-06-07T12:07:47.652Z,4.00
2019-06-07T12:08:47.960Z,3.90
2019-06-07T12:09:56.378Z,3.80
2019-06-07T12:10:48.046Z,3.50
2019-06-07T12:11:48.488Z,3.50
2019-06-07T12:12:48.906Z,4.10
2019-06-07T12:13:49.696Z,3.30
2019-06-07T12:14:49.645Z,4.20
2019-06-07T12:15:50.053Z,4.10
2019-06-07T12:16:50.371Z,3.70
2019-06-07T12:17:50.267Z,4.20
2019-06-07T12:18:51.201Z,3.90
2019-06-07T12:19:51.706Z,4.10
2019-06-07T12:21:51.510Z,6.60
2019-06-07T12:22:51.985Z,5.60
2019-06-07T12:23:52.354Z,3.50
2019-06-07T12:24:52.486Z,3.70
2019-06-07T12:25:52.775Z,3.80
2019-06-07T12:26:52.985Z,3.90
2019-06-07T12:27:53.721Z,3.80
2019-06-07T12:28:53.198Z,3.70
2019-06-07T12:29:54.134Z,4.10
2019-06-07T12:30:55.305Z,3.50
2019-06-07T12:31:54.455Z,4.00
2019-06-07T12:32:54.776Z,4.10
2019-06-07T12:33:55.288Z,3.50
2019-06-07T12:34:54.707Z,3.60
2019-06-07T12:36:55.553Z,3.70
2019-06-07T12:37:55.850Z,3.70
2019-06-07T12:38:56.456Z,3.40
2019-06-07T12:39:56.461Z,4.30
2019-06-07T12:40:57.884Z,4.70
2019-06-07T12:41:55.963Z,3.90
2019-06-07T12:42:56.462Z,3.60
2019-06-07T12:43:59.193Z,3.90
2019-06-07T12:44:56.926Z,3.70
2019-06-07T12:45:56.752Z,3.60
2019-06-07T12:46:57.716Z,4.10
2019-06-07T12:47:57.632Z,4.10
2019-06-07T12:48:57.914Z,4.20
2019-06-07T12:49:58.719Z,4.40
2019-06-07T12:50:58.131Z,3.90
2019-06-07T12:51:59.200Z,3.50
2019-06-07T12:52:58.892Z,4.00
2019-06-07T12:53:59.207Z,3.80
2019-06-07T12:54:59.088Z,4.40
2019-06-07T12:56:00.409Z,5.10
2019-06-07T12:57:00.253Z,4.10
2019-06-07T12:58:00.869Z,4.20
2019-06-07T12:59:00.778Z,3.80
2019-06-07T13:00:01.607Z,3.90
2019-06-07T13:01:01.618Z,3.70
2019-06-07T13:02:02.587Z,4.30
2019-06-07T13:03:02.233Z,3.80
2019-06-07T13:04:01.833Z,4.00
2019-06-07T13:05:04.629Z,4.70
2019-06-07T13:06:01.877Z,3.70
2019-06-07T13:07:01.843Z,3.50
2019-06-07T13:08:02.338Z,4.00
2019-06-07T13:09:02.525Z,3.80
2019-06-07T13:10:02.680Z,3.80
2019-06-07T13:11:14.835Z,3.30
2019-06-07T13:12:02.864Z,3.90
2019-06-07T13:13:03.032Z,3.90
2019-06-07T13:14:03.241Z,4.00
2019-06-07T13:15:03.317Z,4.30
2019-06-07T13:16:03.692Z,3.90
2019-06-07T13:17:03.514Z,3.80
2019-06-07T13:18:03.577Z,4.60
2019-06-07T13:19:04.208Z,4.60
2019-06-07T13:20:04.189Z,3.90
2019-06-07T13:21:04.245Z,4.30
2019-06-07T13:22:04.928Z,4.00
2019-06-07T13:23:04.714Z,4.20
2019-06-07T13:24:05.162Z,4.50
2019-06-07T13:25:05.662Z,4.10
2019-06-07T13:26:05.669Z,3.90
2019-06-07T13:27:05.901Z,4.30
2019-06-07T13:28:08.870Z,4.30
2019-06-07T13:29:06.812Z,3.70
2019-06-07T13:30:10.045Z,4.30
2019-06-07T13:31:07.155Z,4.20
2019-06-07T13:32:07.652Z,3.90
2019-06-07T13:33:08.374Z,4.20
2019-06-07T13:34:08.589Z,4.50
2019-06-07T13:35:09.047Z,3.90
2019-06-07T13:36:09.138Z,3.70
2019-06-07T13:37:09.740Z,4.30
2019-06-07T13:38:09.830Z,4.50
2019-06-07T13:39:10.225Z,4.20
2019-06-07T13:40:10.259Z,4.10
2019-06-07T13:41:10.678Z,3.90
2019-06-07T13:42:10.937Z,4.30
2019-06-07T13:43:11.617Z,4.10
2019-06-07T13:44:11.198Z,4.30
2019-06-07T13:45:11.321Z,4.30
2019-06-07T13:46:12.955Z,4.30
2019-06-07T13:47:11.742Z,4.70
2019-06-07T13:48:12.279Z,4.40
2019-06-07T13:49:12.370Z,4.30
2019-06-07T13:50:12.482Z,3.60
2019-06-07T13:51:15.517Z,4.00
2019-06-07T13:52:12.806Z,3.90
2019-06-07T13:53:13.006Z,4.30
2019-06-07T13:54:13.219Z,4.10
2019-06-07T13:55:13.741Z,4.90
2019-06-07T13:56:14.258Z,5.20
2019-06-07T13:57:13.450Z,4.30
2019-06-07T13:58:13.554Z,4.50
2019-06-07T13:59:13.551Z,4.30
2019-06-07T14:00:14.390Z,4.20
2019-06-07T14:01:14.585Z,4.40
2019-06-07T14:02:14.704Z,4.90
2019-06-07T14:03:14.817Z,5.10
2019-06-07T14:04:15.335Z,3.50
2019-06-07T14:05:15.857Z,3.80
2019-06-07T14:06:15.676Z,4.40
2019-06-07T14:07:16.180Z,5.20
2019-06-07T14:10:16.973Z,4.40
2019-06-07T14:11:17.225Z,4.10
2019-06-07T14:12:17.436Z,3.90
2019-06-07T14:13:18.060Z,4.60
2019-06-07T14:14:17.760Z,3.90
2019-06-07T14:15:17.629Z,4.10
2019-06-07T14:16:17.913Z,4.30
2019-06-07T14:17:18.484Z,4.60
2019-06-07T14:18:20.230Z,5.70
2019-06-07T14:19:20.387Z,4.40
2019-06-07T14:20:25.529Z,4.00
2019-06-07T14:21:20.366Z,4.20
2019-06-07T14:22:20.579Z,4.30
2019-06-07T14:23:41.335Z,4.40
2019-06-07T14:24:21.092Z,4.80
2019-06-07T14:25:21.016Z,4.50
2019-06-07T14:26:21.384Z,4.00
2019-06-07T14:27:21.448Z,4.40
2019-06-07T14:28:24.676Z,4.50
2019-06-07T14:29:21.948Z,4.00
2019-06-07T14:30:23.798Z,4.40
2019-06-07T14:31:24.544Z,4.20
2019-06-07T14:32:22.896Z,4.40
2019-06-07T14:33:26.116Z,4.50
2019-06-07T14:34:24.249Z,5.00
2019-06-07T14:35:24.482Z,4.70
2019-06-07T14:36:24.765Z,4.00
2019-06-07T14:37:24.879Z,3.90
2019-06-07T14:38:24.872Z,3.80
2019-06-07T14:39:24.943Z,4.40
2019-06-07T14:40:25.406Z,4.30
2019-06-07T14:41:25.227Z,4.60
2019-06-07T14:42:25.343Z,4.40
2019-06-07T14:43:25.731Z,3.80
2019-06-07T14:44:26.296Z,4.00
2019-06-07T14:45:27.588Z,4.10
2019-06-07T14:46:28.096Z,4.20
2019-06-07T14:47:27.965Z,4.70
2019-06-07T14:48:28.000Z,4.00
2019-06-07T14:49:28.206Z,3.90
2019-06-07T14:50:28.178Z,4.20
2019-06-07T14:51:28.452Z,4.10
2019-06-07T14:52:28.417Z,4.50
2019-06-07T14:53:28.795Z,3.80
2019-06-07T14:54:32.113Z,4.00
2019-06-07T14:55:29.011Z,4.40
2019-06-07T14:56:29.579Z,3.60
2019-06-07T14:57:29.122Z,4.40
2019-06-07T14:58:29.333Z,4.10
2019-06-07T14:59:30.337Z,4.30
2019-06-07T15:00:30.468Z,3.80
2019-06-07T15:01:30.701Z,4.30
2019-06-07T15:02:33.797Z,4.40
2019-06-07T15:03:30.718Z,4.10
2019-06-07T15:04:30.885Z,4.30
2019-06-07T15:05:32.871Z,3.90
2019-06-07T15:06:32.676Z,4.10
2019-06-07T15:07:31.027Z,4.10
2019-06-07T15:08:32.964Z,3.90
2019-06-07T15:09:35.247Z,4.20
2019-06-07T15:10:32.351Z,4.20
2019-06-07T15:11:33.144Z,4.50
2019-06-07T15:12:33.214Z,4.70
2019-06-07T15:13:33.607Z,3.80
2019-06-07T15:14:33.421Z,3.80
2019-06-07T15:15:34.603Z,4.50
2019-06-07T15:16:33.877Z,4.10
2019-06-07T15:17:35.329Z,4.20
2019-06-07T15:18:34.037Z,3.60
2019-06-07T15:19:36.296Z,4.50
2019-06-07T15:20:34.266Z,3.70
2019-06-07T15:21:35.114Z,4.00
2019-06-07T15:22:36.145Z,4.40
2019-06-07T15:23:35.271Z,4.00
2019-06-07T15:24:37.783Z,4.20
2019-06-07T15:25:39.698Z,4.10
2019-06-07T15:26:36.430Z,4.10
2019-06-07T15:27:37.474Z,4.20
2019-06-07T15:28:38.066Z,4.20
2019-06-07T15:29:38.117Z,4.10
2019-06-07T15:30:36.248Z,4.10
2019-06-07T15:31:38.558Z,4.10
2019-06-07T15:32:39.388Z,4.10
2019-06-07T15:33:38.342Z,4.10
2019-06-07T15:34:38.426Z,4.40
2019-06-07T15:35:39.105Z,4.20
2019-06-07T15:36:38.757Z,4.00
2019-06-07T15:37:39.347Z,4.60
2019-06-07T15:38:39.625Z,4.00
2019-06-07T15:39:39.299Z,6.10
2019-06-07T15:40:39.697Z,3.90
2019-06-07T15:41:39.704Z,4.10
2019-06-07T15:42:51.260Z,4.30
2019-06-07T15:43:39.474Z,4.40
2019-06-07T15:44:39.604Z,4.40
2019-06-07T15:45:39.778Z,4.20
2019-06-07T15:46:40.435Z,4.10
2019-06-07T15:47:40.769Z,4.20
2019-06-07T15:48:40.681Z,4.50
2019-06-07T15:49:41.323Z,4.20
2019-06-07T15:50:41.013Z,4.60
2019-06-07T15:51:41.254Z,4.30
2019-06-07T15:52:43.322Z,4.60
2019-06-07T15:53:44.637Z,4.60
2019-06-07T15:54:41.565Z,4.30
2019-06-07T15:55:45.414Z,5.00
2019-06-07T15:56:41.969Z,4.70
2019-06-07T15:57:42.575Z,4.10
2019-06-07T15:58:42.713Z,4.30
2019-06-07T15:59:43.030Z,4.30
2019-06-07T16:00:45.947Z,4.70
2019-06-07T16:01:43.746Z,4.10
2019-06-07T16:02:44.374Z,4.60
2019-06-07T16:03:44.482Z,4.80
2019-06-07T16:04:44.186Z,4.20
2019-06-07T16:05:44.034Z,4.10
2019-06-07T16:06:44.700Z,4.20
2019-06-07T16:07:45.121Z,4.20
2019-06-07T16:08:44.981Z,4.00
2019-06-07T16:09:45.455Z,3.80
2019-06-07T16:10:45.961Z,4.30
2019-06-07T16:11:46.346Z,4.30
2019-06-07T16:12:59.622Z,4.40
2019-06-07T16:13:47.097Z,4.70
2019-06-07T16:14:46.980Z,4.20
2019-06-07T16:15:47.397Z,6.30
2019-06-07T16:16:47.944Z,4.40
2019-06-07T16:17:47.869Z,4.50
2019-06-07T16:18:48.201Z,3.80
2019-06-07T16:19:48.898Z,4.20
2019-06-07T16:20:48.903Z,4.20
2019-06-07T16:21:49.310Z,4.30
2019-06-07T16:22:49.168Z,6.80
2019-06-07T16:23:49.628Z,4.40
2019-06-07T16:24:50.452Z,4.10
2019-06-07T16:25:50.675Z,4.10
2019-06-07T16:26:50.874Z,3.80
2019-06-07T16:27:51.319Z,4.40
2019-06-07T16:28:51.807Z,4.50
2019-06-07T16:29:52.025Z,4.20
2019-06-07T16:30:51.918Z,4.50
2019-06-07T16:31:52.443Z,4.10
2019-06-07T16:32:52.446Z,4.30
2019-06-07T16:33:53.380Z,4.10
2019-06-07T16:34:53.603Z,4.10
2019-06-07T16:35:53.708Z,3.90
2019-06-07T16:36:54.110Z,3.90
2019-06-07T16:37:54.005Z,4.10
2019-06-07T16:38:54.951Z,4.30
2019-06-07T16:40:55.064Z,4.10
2019-06-07T16:41:54.980Z,3.80
2019-06-07T16:42:56.004Z,4.60
2019-06-07T16:43:55.411Z,4.40
2019-06-07T16:44:56.024Z,5.00
2019-06-07T16:45:56.345Z,5.20
2019-06-07T16:46:56.432Z,4.20
2019-06-07T16:47:56.643Z,3.90
2019-06-07T16:48:56.691Z,4.10
2019-06-07T16:49:56.921Z,3.80
2019-06-07T16:50:57.178Z,4.30
2019-06-07T16:51:57.593Z,4.30
2019-06-07T16:52:57.806Z,4.30
2019-06-07T16:53:58.016Z,4.40
2019-06-07T16:54:58.437Z,5.10
2019-06-07T16:55:58.857Z,4.00
2019-06-07T16:56:59.083Z,4.20
2019-06-07T16:57:58.916Z,5.00
2019-06-07T16:58:59.793Z,4.30
2019-06-07T17:00:00.415Z,4.10
2019-06-07T17:01:00.218Z,4.10
2019-06-07T17:02:00.318Z,4.50
2019-06-07T17:03:00.734Z,4.00
2019-06-07T17:04:01.124Z,4.20
2019-06-07T17:05:01.556Z,3.90
2019-06-07T17:06:01.888Z,4.50
2019-06-07T17:07:01.692Z,4.30
2019-06-07T17:08:02.284Z,4.50
2019-06-07T17:09:02.413Z,4.50
2019-06-07T17:10:02.650Z,4.60
2019-06-07T17:11:03.257Z,4.90
2019-06-07T17:12:06.316Z,4.20
2019-06-07T17:13:03.467Z,4.30
2019-06-07T17:14:04.074Z,4.30
2019-06-07T17:15:03.618Z,4.60
2019-06-07T17:16:04.217Z,4.50
2019-06-07T17:17:03.825Z,4.30
2019-06-07T17:18:04.125Z,4.50
2019-06-07T17:19:04.522Z,3.80
2019-06-07T17:20:04.418Z,4.30
2019-06-07T17:21:05.454Z,4.20
2019-06-07T17:22:05.976Z,4.20
2019-06-07T17:23:05.170Z,4.00
2019-06-07T17:24:05.025Z,4.10
2019-06-07T17:25:05.590Z,3.90
2019-06-07T17:26:06.011Z,4.00
2019-06-07T17:27:06.433Z,4.90
2019-06-07T17:28:06.638Z,4.30
2019-06-07T17:29:06.953Z,4.10
2019-06-07T17:30:07.237Z,10.20
2019-06-07T17:31:07.761Z,16.80
2019-06-07T17:32:07.268Z,7.90
2019-06-07T17:33:07.294Z,15.20
2019-06-07T17:34:08.204Z,12.30
2019-06-07T17:35:08.326Z,11.40
2019-06-07T17:36:08.494Z,16.00
2019-06-07T17:38:08.862Z,8.80
2019-06-07T17:39:08.848Z,7.30
2019-06-07T17:40:09.123Z,10.10
2019-06-07T17:41:10.094Z,9.20
2019-06-07T17:42:10.113Z,5.20
2019-06-07T17:43:10.431Z,5.60
2019-06-07T17:44:10.443Z,9.70
2019-06-07T17:45:11.454Z,9.50
2019-06-07T17:46:10.932Z,6.60
2019-06-07T17:47:11.347Z,5.60
2019-06-07T17:48:11.773Z,6.80
2019-06-07T17:49:12.150Z,4.50
2019-06-07T17:50:13.022Z,4.20
2019-06-07T17:51:13.119Z,7.50
2019-06-07T17:52:13.075Z,7.50
2019-06-07T17:53:13.566Z,3.20
2019-06-07T17:55:14.699Z,0.00
2019-06-07T17:56:14.693Z,7.30
2019-06-07T17:57:14.210Z,3.30
2019-06-07T17:58:14.817Z,3.50
2019-06-07T17:59:15.075Z,5.10
2019-06-07T18:00:28.211Z,3.60
2019-06-07T18:01:15.338Z,1.50
2019-06-07T18:02:15.787Z,4.10
2019-06-07T18:03:15.471Z,3.40
2019-06-07T18:04:15.667Z,2.10
2019-06-07T18:05:16.007Z,2.10
2019-06-07T18:06:16.295Z,2.60
2019-06-07T18:07:16.653Z,1.70
2019-06-07T18:08:17.237Z,5.40
2019-06-07T18:09:17.144Z,3.90
2019-06-07T18:10:17.247Z,2.20
2019-06-07T18:11:17.208Z,1.70
2019-06-07T18:12:17.795Z,1.60
2019-06-07T18:13:18.550Z,2.30
2019-06-07T18:14:18.395Z,3.30
2019-06-07T18:15:18.290Z,2.60
2019-06-07T18:16:18.828Z,3.10
2019-06-07T18:17:33.758Z,2.10
2019-06-07T18:18:19.577Z,2.60
2019-06-07T18:19:19.153Z,2.70
2019-06-07T18:20:19.876Z,2.00
2019-06-07T18:21:20.386Z,4.20
2019-06-07T18:22:20.417Z,4.10
2019-06-07T18:23:20.229Z,1.40
2019-06-07T18:24:20.615Z,3.50
2019-06-07T18:25:20.588Z,4.60
2019-06-07T18:26:20.872Z,6.80
2019-06-07T18:27:22.285Z,1.50
2019-06-07T18:28:21.514Z,2.40
2019-06-07T18:29:21.476Z,4.80
2019-06-07T18:30:21.684Z,2.70
2019-06-07T18:31:22.102Z,1.80
2019-06-07T18:32:22.609Z,2.70
2019-06-07T18:33:22.271Z,1.40
2019-06-07T18:34:22.536Z,1.70
2019-06-07T18:35:22.432Z,1.70
2019-06-07T18:36:22.495Z,2.30
2019-06-07T18:37:22.819Z,1.70
2019-06-07T18:38:23.489Z,1.20
2019-06-07T18:39:23.894Z,1.90
2019-06-07T18:40:23.992Z,2.40
2019-06-07T18:41:24.110Z,2.10
2019-06-07T18:42:24.215Z,1.90
2019-06-07T18:43:24.849Z,3.40